Time;durP1;ratioP1;P1;durP2;ratioP2;P2;SDS_P1;SDS_P2;PMS_P1;PMS_P2;Temp;Humidity;BMP_temperature;BMP_pressure;BME280_temperature;BME280_humidity;BME280_pressure;Samples;Min_cycle;Max_cycle;Signal;HPM_P1;HPM_P2
2024/01/29 00:00:53;;;;;;;3.10;2.80;;;15.70;53.20;16.70;101760.00;;;;5046751;28;20183;-49
2024/01/29 00:03:18;;;;;;;3.07;2.50;;;15.60;52.90;16.70;101758.00;;;;5039618;28;20198;-47
2024/01/29 00:05:44;;;;;;;2.70;2.50;;;15.60;53.10;16.70;101759.00;;;;5038914;28;20645;-46
2024/01/29 00:08:10;;;;;;;2.60;2.40;;;15.60;53.00;16.70;101756.00;;;;5038899;28;20259;-46
2024/01/29 00:10:36;;;;;;;2.60;2.40;;;15.60;52.90;16.70;101760.00;;;;5041811;28;20252;-46
2024/01/29 00:13:02;;;;;;;2.83;2.60;;;15.60;52.90;16.70;101746.00;;;;5047152;28;20195;-46
2024/01/29 00:15:28;;;;;;;2.80;2.50;;;15.60;52.90;16.70;101757.00;;;;5041058;28;20177;-46
2024/01/29 00:17:54;;;;;;;2.67;2.47;;;15.60;52.80;16.70;101753.00;;;;5040595;28;20728;-46
2024/01/29 00:20:19;;;;;;;2.83;2.40;;;15.60;52.80;16.70;101748.00;;;;5041576;28;20178;-46
2024/01/29 00:22:45;;;;;;;2.73;2.40;;;15.60;52.90;16.60;101752.00;;;;5038927;28;20237;-46
2024/01/29 00:25:11;;;;;;;2.80;2.60;;;15.60;52.80;16.60;101752.00;;;;5042316;28;20178;-46
2024/01/29 00:27:37;;;;;;;2.50;2.30;;;15.50;52.80;16.60;101742.00;;;;5039932;28;20194;-46
2024/01/29 00:30:03;;;;;;;2.50;2.30;;;15.60;52.90;16.60;101742.00;;;;5042185;28;20265;-46
2024/01/29 00:32:29;;;;;;;2.73;2.53;;;15.60;52.90;16.60;101755.00;;;;5039896;28;20217;-46
2024/01/29 00:34:55;;;;;;;2.60;2.40;;;15.50;53.00;16.60;101747.00;;;;5043842;28;20274;-46
2024/01/29 00:37:22;;;;;;;2.50;2.30;;;15.50;53.00;16.60;101755.00;;;;5039882;28;20198;-46
2024/01/29 00:39:49;;;;;;;2.77;2.57;;;15.50;52.90;16.60;101748.00;;;;5038212;28;20184;-46
2024/01/29 00:42:15;;;;;;;2.60;2.40;;;15.50;52.90;16.60;101752.00;;;;5041088;28;20202;-46
2024/01/29 00:44:42;;;;;;;2.50;2.30;;;15.50;52.90;16.60;101744.00;;;;5038318;28;20341;-46
2024/01/29 00:47:09;;;;;;;2.63;2.40;;;15.50;53.00;16.60;101749.00;;;;5038296;28;20253;-46
2024/01/29 00:49:35;;;;;;;2.43;2.23;;;15.50;53.00;16.60;101754.00;;;;5038720;28;20178;-46
2024/01/29 00:52:02;;;;;;;2.57;2.37;;;15.50;53.00;16.60;101754.00;;;;5039871;28;20199;-46
2024/01/29 00:54:27;;;;;;;2.50;2.30;;;15.50;53.00;16.50;101762.00;;;;5038976;28;20695;-46
2024/01/29 00:56:53;;;;;;;2.60;2.40;;;15.40;53.00;16.50;101753.00;;;;5039717;28;20192;-46
2024/01/29 00:59:19;;;;;;;2.90;2.63;;;15.50;53.00;16.50;101761.00;;;;5040228;28;20170;-46
2024/01/29 01:01:45;;;;;;;2.70;2.50;;;15.40;52.90;16.50;101752.00;;;;5037627;28;20183;-46
2024/01/29 01:04:10;;;;;;;2.53;2.33;;;15.50;53.00;16.50;101764.00;;;;5039131;28;20187;-46
2024/01/29 01:06:36;;;;;;;2.90;2.70;;;15.40;53.00;16.50;101750.00;;;;5037289;28;20233;-46
2024/01/29 01:09:03;;;;;;;2.80;2.50;;;15.40;52.90;16.50;101765.00;;;;5042099;28;20190;-46
2024/01/29 01:11:28;;;;;;;2.40;2.20;;;15.40;52.90;16.50;101739.00;;;;5038452;28;20354;-46
2024/01/29 01:13:54;;;;;;;2.70;2.43;;;15.40;52.90;16.50;101764.00;;;;5038391;28;20254;-47
2024/01/29 01:16:20;;;;;;;2.50;2.30;;;15.40;52.90;16.50;101755.00;;;;5038945;28;20182;-46
2024/01/29 01:18:45;;;;;;;2.50;2.30;;;15.40;52.90;16.50;101763.00;;;;5036414;28;20680;-46
2024/01/29 01:21:11;;;;;;;2.37;2.17;;;15.40;52.90;16.50;101766.00;;;;5040236;28;20236;-47
2024/01/29 01:23:38;;;;;;;2.43;2.23;;;15.40;53.00;16.40;101771.00;;;;5042972;28;20649;-46
2024/01/29 01:26:05;;;;;;;2.50;2.30;;;15.40;53.00;16.40;101758.00;;;;5045066;28;20262;-46
2024/01/29 01:28:30;;;;;;;2.33;2.13;;;15.40;53.00;16.40;101769.00;;;;5037194;28;20579;-46
2024/01/29 01:30:56;;;;;;;2.37;2.17;;;15.30;52.90;16.40;101767.00;;;;5038874;28;20217;-46
2024/01/29 01:33:22;;;;;;;2.67;2.47;;;15.30;52.90;16.40;101760.00;;;;5038642;28;20268;-46
2024/01/29 01:35:47;;;;;;;2.40;2.20;;;15.30;52.90;16.40;101759.00;;;;5040426;28;20182;-46
2024/01/29 01:38:13;;;;;;;2.47;2.27;;;15.30;52.90;16.40;101753.00;;;;5039461;28;20646;-46
2024/01/29 01:40:39;;;;;;;2.50;2.30;;;15.40;53.00;16.40;101763.00;;;;5036797;28;20205;-45
2024/01/29 01:43:17;;;;;;;2.50;2.30;;;15.30;53.00;16.40;101768.00;;;;5039911;28;20217;-47
2024/01/29 01:45:43;;;;;;;2.50;2.30;;;15.30;53.00;16.30;101771.00;;;;5035475;28;20186;-46
2024/01/29 01:48:09;;;;;;;2.60;2.40;;;15.30;52.90;16.30;101770.00;;;;5042899;28;20202;-45
2024/01/29 01:50:35;;;;;;;2.57;2.37;;;15.30;53.00;16.30;101767.00;;;;5042341;28;20214;-45
2024/01/29 01:53:01;;;;;;;2.50;2.30;;;15.30;53.00;16.30;101769.00;;;;5039966;28;20599;-47
2024/01/29 01:55:27;;;;;;;2.50;2.30;;;15.30;52.90;16.30;101760.00;;;;5037388;28;20236;-46
2024/01/29 01:57:53;;;;;;;3.20;2.30;;;15.30;53.00;16.30;101763.00;;;;5037921;28;20198;-46
2024/01/29 02:00:19;;;;;;;2.30;2.10;;;15.20;52.90;16.30;101761.00;;;;5022597;28;20181;-45
2024/01/29 02:02:44;;;;;;;2.67;2.47;;;15.20;52.90;16.30;101773.00;;;;5044297;28;20197;-46
2024/01/29 02:05:10;;;;;;;2.83;2.40;;;15.20;53.50;16.30;101760.00;;;;5040996;28;20324;-46
2024/01/29 02:07:36;;;;;;;2.50;2.30;;;15.20;52.80;16.30;101755.00;;;;5036686;28;20194;-46
2024/01/29 02:10:02;;;;;;;2.47;2.13;;;15.20;52.80;16.30;101770.00;;;;5038053;28;20194;-46
2024/01/29 02:12:27;;;;;;;2.97;2.50;;;15.20;52.80;16.30;101776.00;;;;5037002;28;20217;-46
2024/01/29 02:14:53;;;;;;;2.63;2.43;;;15.20;52.80;16.30;101779.00;;;;5037803;28;20190;-46
2024/01/29 02:17:19;;;;;;;2.60;2.40;;;15.20;52.70;16.30;101772.00;;;;5038147;28;20206;-46
2024/01/29 02:19:44;;;;;;;2.60;2.40;;;15.20;52.80;16.30;101768.00;;;;5036641;28;20179;-46
2024/01/29 02:22:10;;;;;;;2.27;2.10;;;15.20;52.80;16.20;101783.00;;;;5040552;28;20197;-46
2024/01/29 02:24:36;;;;;;;2.50;2.30;;;15.10;52.70;16.20;101765.00;;;;5037129;28;20529;-46
2024/01/29 02:27:02;;;;;;;2.30;2.10;;;15.20;52.80;16.20;101753.00;;;;5036919;28;20207;-46
2024/01/29 02:29:28;;;;;;;2.57;2.37;;;15.10;52.70;16.20;101785.00;;;;5037009;28;20265;-47
2024/01/29 02:31:53;;;;;;;2.67;2.47;;;15.10;52.70;16.20;101778.00;;;;5037706;28;20213;-48
2024/01/29 02:34:19;;;;;;;2.60;2.40;;;15.10;52.70;16.20;101780.00;;;;5038098;28;20806;-47
2024/01/29 02:36:45;;;;;;;2.60;2.40;;;15.10;52.70;16.20;101771.00;;;;5033175;28;20198;-47
2024/01/29 02:39:12;;;;;;;2.50;2.30;;;15.10;52.70;16.20;101771.00;;;;5039305;28;20190;-46
2024/01/29 02:41:38;;;;;;;2.70;2.50;;;15.10;52.70;16.20;101770.00;;;;5035841;28;20194;-46
2024/01/29 02:44:04;;;;;;;3.47;2.37;;;15.10;52.80;16.20;101735.00;;;;5038892;28;20186;-46
2024/01/29 02:46:29;;;;;;;2.60;2.40;;;15.10;52.70;16.20;101770.00;;;;5036110;28;20218;-47
2024/01/29 02:48:55;;;;;;;2.60;2.40;;;15.10;52.70;16.20;101767.00;;;;5037642;28;20186;-46
2024/01/29 02:51:21;;;;;;;2.60;2.40;;;15.10;52.70;16.10;101767.00;;;;5037400;28;20257;-46
2024/01/29 02:53:46;;;;;;;2.47;2.27;;;15.00;52.60;16.10;101781.00;;;;5036375;28;20233;-47
2024/01/29 02:56:12;;;;;;;2.40;2.20;;;15.10;52.80;16.10;101792.00;;;;5038410;28;20208;-46
2024/01/29 02:58:38;;;;;;;2.37;2.17;;;15.00;52.60;16.10;101776.00;;;;5035937;28;20199;-46
2024/01/29 03:01:04;;;;;;;2.53;2.33;;;15.00;52.70;16.10;101780.00;;;;5038949;28;20663;-46
2024/01/29 03:03:29;;;;;;;2.60;2.40;;;15.00;52.70;16.10;101782.00;;;;5036320;28;20179;-46
2024/01/29 03:05:55;;;;;;;2.60;2.40;;;15.00;52.60;16.10;101779.00;;;;5037291;28;20182;-45
2024/01/29 03:08:21;;;;;;;2.53;2.20;;;15.00;52.80;16.10;101770.00;;;;5037225;28;20206;-46
2024/01/29 03:10:46;;;;;;;3.80;2.40;;;15.00;52.70;16.10;101777.00;;;;5034595;28;20597;-46
2024/01/29 03:13:12;;;;;;;2.57;2.37;;;15.00;52.60;16.10;101776.00;;;;5038445;28;20213;-46
2024/01/29 03:15:38;;;;;;;2.50;2.30;;;15.00;52.60;16.10;101790.00;;;;5035018;28;20317;-46
2024/01/29 03:18:04;;;;;;;2.90;2.60;;;15.00;52.70;16.10;101783.00;;;;5038409;28;20206;-46
2024/01/29 03:20:29;;;;;;;2.67;2.47;;;15.00;52.70;16.10;101780.00;;;;5036151;28;20279;-46
2024/01/29 03:22:55;;;;;;;2.73;2.50;;;15.00;52.60;16.10;101779.00;;;;5035664;28;20175;-45
2024/01/29 03:25:21;;;;;;;2.77;2.53;;;15.00;52.60;16.00;101781.00;;;;5035401;28;20181;-46
2024/01/29 03:27:46;;;;;;;2.50;2.30;;;15.00;52.60;16.00;101776.00;;;;5035420;28;20787;-46
2024/01/29 03:30:12;;;;;;;2.57;2.37;;;14.90;52.60;16.00;101773.00;;;;5039373;28;20182;-46
2024/01/29 03:32:38;;;;;;;2.50;2.30;;;14.90;52.60;16.00;101781.00;;;;5036399;28;20261;-46
2024/01/29 03:35:04;;;;;;;2.97;2.60;;;14.90;52.60;16.00;101777.00;;;;5040092;28;20177;-45
2024/01/29 03:37:30;;;;;;;2.30;2.10;;;14.90;52.70;16.00;101782.00;;;;5040409;28;20707;-46
2024/01/29 03:39:56;;;;;;;2.80;2.50;;;14.90;52.60;16.00;101782.00;;;;5045298;28;20241;-46
2024/01/29 03:42:21;;;;;;;2.57;2.37;;;14.90;52.50;16.00;101772.00;;;;5044444;28;20202;-46
2024/01/29 03:44:47;;;;;;;2.60;2.40;;;14.90;52.60;16.00;101768.00;;;;5040828;28;20674;-46
2024/01/29 03:47:13;;;;;;;2.73;2.53;;;14.90;52.80;16.00;101776.00;;;;5042315;28;20237;-47
2024/01/29 03:49:38;;;;;;;2.50;2.30;;;14.90;52.70;16.00;101778.00;;;;5039128;28;20650;-46
2024/01/29 03:52:04;;;;;;;2.60;2.40;;;14.90;52.70;16.00;101770.00;;;;5051509;28;20214;-52
2024/01/29 03:54:30;;;;;;;2.43;2.23;;;14.90;52.70;16.00;101779.00;;;;5042092;28;20645;-46
2024/01/29 03:56:56;;;;;;;2.87;2.63;;;14.90;52.70;16.00;101782.00;;;;5041686;28;20199;-47
2024/01/29 03:59:22;;;;;;;2.60;2.40;;;14.80;52.60;16.00;101717.00;;;;5042014;28;20186;-45
2024/01/29 04:01:48;;;;;;;2.60;2.40;;;14.90;52.70;15.90;101784.00;;;;5040811;28;20183;-46
2024/01/29 04:04:14;;;;;;;2.60;2.40;;;14.90;52.50;15.80;101776.00;;;;5040106;28;20231;-46
2024/01/29 04:06:40;;;;;;;2.50;2.30;;;14.80;52.50;15.90;101780.00;;;;5039603;28;20269;-46
2024/01/29 04:09:09;;;;;;;2.50;2.30;;;14.80;52.50;15.90;101770.00;;;;5041041;28;20550;-46
2024/01/29 04:11:35;;;;;;;2.70;2.50;;;14.80;52.50;15.90;101780.00;;;;5039599;28;20203;-47
2024/01/29 04:14:01;;;;;;;2.57;2.37;;;14.80;52.50;15.90;101774.00;;;;5041828;28;20186;-46
2024/01/29 04:16:26;;;;;;;2.57;2.37;;;14.80;52.50;15.90;101770.00;;;;5040283;28;20217;-46
2024/01/29 04:18:52;;;;;;;2.70;2.43;;;14.80;52.50;15.90;101772.00;;;;5034217;28;20241;-46
2024/01/29 04:21:18;;;;;;;2.50;2.30;;;14.80;52.60;15.90;101779.00;;;;5035501;28;20240;-48
2024/01/29 04:23:43;;;;;;;2.30;2.10;;;14.80;52.50;15.90;101779.00;;;;5038450;28;20175;-46
2024/01/29 04:26:10;;;;;;;2.63;2.43;;;14.80;52.60;15.90;101775.00;;;;5041892;28;20185;-46
2024/01/29 04:28:35;;;;;;;2.50;2.30;;;14.80;52.80;15.90;101769.00;;;;5039002;28;20199;-46
2024/01/29 04:31:01;;;;;;;2.80;2.60;;;14.80;52.90;15.90;101777.00;;;;5041730;28;20211;-46
2024/01/29 04:33:27;;;;;;;2.57;2.33;;;14.80;52.90;15.80;101776.00;;;;5040348;28;20174;-47
2024/01/29 04:35:52;;;;;;;3.13;2.50;;;14.80;52.80;15.90;101780.00;;;;5042242;28;20178;-46
2024/01/29 04:38:18;;;;;;;2.83;2.30;;;14.80;52.90;15.80;101777.00;;;;5039336;28;20676;-47
2024/01/29 04:40:44;;;;;;;3.60;2.30;;;14.80;52.90;15.80;101782.00;;;;5039429;28;20182;-46
2024/01/29 04:43:09;;;;;;;3.23;2.20;;;14.80;52.90;15.80;101787.00;;;;5039121;28;20178;-46
2024/01/29 04:45:35;;;;;;;2.50;2.30;;;14.80;53.10;15.80;101786.00;;;;5037114;28;20182;-47
2024/01/29 04:48:01;;;;;;;3.33;2.40;;;14.80;53.20;15.80;101780.00;;;;5038939;28;20548;-46
2024/01/29 04:50:26;;;;;;;2.60;2.23;;;14.80;53.20;15.80;101793.00;;;;5038715;28;20333;-46
2024/01/29 04:52:52;;;;;;;3.13;2.30;;;14.70;53.10;15.80;101788.00;;;;5039113;28;20262;-46
2024/01/29 04:55:18;;;;;;;2.50;2.30;;;14.80;53.30;15.80;101792.00;;;;5039705;28;20204;-46
2024/01/29 04:57:44;;;;;;;5.13;2.53;;;14.70;53.20;15.80;101784.00;;;;5036375;28;20685;-47
2024/01/29 05:00:10;;;;;;;4.30;2.50;;;14.70;53.30;15.80;101794.00;;;;5038605;28;20179;-46
2024/01/29 05:02:36;;;;;;;4.37;2.40;;;14.70;53.20;15.50;101798.00;;;;5034479;28;20214;-46
2024/01/29 05:05:02;;;;;;;3.40;2.00;;;14.70;53.30;15.80;101791.00;;;;5041204;28;20325;-46
2024/01/29 05:07:28;;;;;;;7.13;2.63;;;14.70;53.30;15.80;101792.00;;;;5039744;28;20241;-46
2024/01/29 05:09:54;;;;;;;5.57;2.53;;;14.70;53.30;15.70;101797.00;;;;5040339;28;20207;-46
2024/01/29 05:12:20;;;;;;;3.83;2.50;;;14.70;53.30;15.70;101798.00;;;;5040629;28;20209;-46
2024/01/29 05:14:45;;;;;;;3.40;2.40;;;14.70;53.30;15.70;101798.00;;;;5039157;28;20727;-46
2024/01/29 05:17:11;;;;;;;2.87;2.40;;;14.70;53.30;15.70;101796.00;;;;5040637;28;20228;-46
2024/01/29 05:19:40;;;;;;;4.20;2.50;;;14.70;53.30;15.70;101798.00;;;;5038488;28;20186;-46
2024/01/29 05:22:06;;;;;;;5.03;2.40;;;14.70;53.40;15.70;101799.00;;;;5040610;28;20185;-46
2024/01/29 05:24:31;;;;;;;7.97;2.30;;;14.70;53.40;15.70;101792.00;;;;5038989;28;20175;-46
2024/01/29 05:26:57;;;;;;;6.37;2.30;;;14.70;53.40;15.70;101795.00;;;;5035787;28;20669;-45
2024/01/29 05:29:23;;;;;;;3.10;2.47;;;14.70;53.50;15.70;101800.00;;;;5048443;28;20194;-45
2024/01/29 05:31:48;;;;;;;5.77;2.53;;;14.70;53.60;15.70;101807.00;;;;5041281;28;20210;-46
2024/01/29 05:34:14;;;;;;;4.83;2.20;;;14.70;53.70;15.70;101803.00;;;;5030716;28;20178;-46
2024/01/29 05:36:40;;;;;;;4.53;2.50;;;14.70;53.80;15.70;101806.00;;;;5041800;28;20552;-47
2024/01/29 05:39:06;;;;;;;3.40;2.30;;;14.60;53.90;15.70;101802.00;;;;5041404;28;20189;-45
2024/01/29 05:41:31;;;;;;;4.47;2.27;;;14.60;53.90;15.70;101810.00;;;;5042300;28;20195;-47
2024/01/29 05:43:57;;;;;;;5.53;2.40;;;14.60;53.90;15.70;101799.00;;;;5047357;28;20179;-48
2024/01/29 05:46:23;;;;;;;4.23;2.20;;;14.60;53.90;15.70;101806.00;;;;5038641;28;20174;-45
2024/01/29 05:48:48;;;;;;;4.20;2.40;;;14.60;53.90;15.70;101813.00;;;;5039846;28;20394;-46
2024/01/29 05:51:14;;;;;;;3.13;2.13;;;14.60;54.00;15.70;101812.00;;;;5045680;28;20214;-46
2024/01/29 05:53:40;;;;;;;2.60;2.30;;;14.60;54.00;15.60;101812.00;;;;5037468;28;20194;-46
2024/01/29 05:56:05;;;;;;;4.23;2.30;;;14.60;54.10;15.60;101813.00;;;;5040886;28;20174;-46
2024/01/29 05:58:33;;;;;;;2.50;2.30;;;14.60;54.10;15.60;101816.00;;;;5036385;28;20611;-46
2024/01/29 06:00:59;;;;;;;2.90;2.60;;;14.60;54.10;15.60;101815.00;;;;5039447;28;20195;-46
2024/01/29 06:03:25;;;;;;;3.27;2.20;;;14.60;54.20;15.60;101818.00;;;;5038200;28;20625;-46
2024/01/29 06:05:51;;;;;;;2.73;2.30;;;14.60;54.30;15.60;101831.00;;;;5038593;28;20182;-46
2024/01/29 06:08:17;;;;;;;3.03;2.30;;;14.60;54.40;15.60;101816.00;;;;5040113;28;20259;-46
2024/01/29 06:10:42;;;;;;;2.57;2.27;;;14.60;54.40;15.60;101822.00;;;;5036922;28;20731;-46
2024/01/29 06:13:08;;;;;;;2.67;2.10;;;14.50;54.30;15.60;101829.00;;;;5039306;28;20182;-46
2024/01/29 06:15:34;;;;;;;3.63;2.20;;;14.60;54.60;15.60;101824.00;;;;5037469;28;20186;-46
2024/01/29 06:18:00;;;;;;;4.23;2.50;;;14.60;54.50;15.60;101808.00;;;;5038208;28;20783;-45
2024/01/29 06:20:25;;;;;;;3.80;2.27;;;14.50;54.90;15.60;101812.00;;;;5038823;28;20209;-47
2024/01/29 06:22:52;;;;;;;3.87;2.27;;;14.40;55.10;15.50;101824.00;;;;5038417;28;20179;-45
2024/01/29 06:25:19;;;;;;;2.60;2.30;;;14.40;55.30;15.50;101823.00;;;;5039476;28;20261;-46
2024/01/29 06:27:45;;;;;;;2.40;2.20;;;14.50;56.10;15.50;101826.00;;;;5036855;28;20202;-45
2024/01/29 06:30:12;;;;;;;3.13;2.50;;;14.50;55.40;15.60;101834.00;;;;5040500;28;20182;-46
2024/01/29 06:32:38;;;;;;;2.40;2.20;;;14.60;55.30;15.60;101836.00;;;;5035740;28;20205;-46
2024/01/29 06:35:04;;;;;;;3.20;2.10;;;14.70;55.10;15.60;101843.00;;;;5042470;28;20174;-46
2024/01/29 06:37:29;;;;;;;2.50;2.20;;;14.80;55.00;15.70;101838.00;;;;5037068;28;20210;-46
2024/01/29 06:39:55;;;;;;;4.80;2.30;;;15.00;54.80;15.70;101840.00;;;;5039072;28;20633;-46
2024/01/29 06:42:21;;;;;;;3.07;2.33;;;15.10;54.70;15.80;101841.00;;;;5039865;28;20520;-46
2024/01/29 06:44:46;;;;;;;3.00;2.30;;;15.30;54.60;15.90;101842.00;;;;5037416;28;20189;-46
2024/01/29 06:47:14;;;;;;;2.23;2.03;;;15.40;54.30;16.00;101838.00;;;;5040381;28;20226;-47
2024/01/29 06:49:40;;;;;;;2.40;2.13;;;15.60;54.20;16.10;101840.00;;;;5037792;28;20185;-46
2024/01/29 06:52:06;;;;;;;2.40;2.20;;;15.70;54.00;16.20;101833.00;;;;5040440;28;20210;-46
2024/01/29 06:54:31;;;;;;;2.97;2.30;;;15.80;53.90;16.20;101839.00;;;;5037477;28;20692;-46
2024/01/29 06:56:58;;;;;;;2.10;2.00;;;15.90;53.80;16.30;101843.00;;;;5038759;28;20252;-45
2024/01/29 06:59:25;;;;;;;2.40;2.20;;;16.00;53.80;16.40;101830.00;;;;5038567;28;20227;-47
2024/01/29 07:01:52;;;;;;;2.20;2.00;;;16.10;53.90;16.50;101831.00;;;;5037502;28;20186;-46
2024/01/29 07:04:18;;;;;;;2.57;2.13;;;16.10;53.90;16.50;101838.00;;;;5038683;28;20731;-46
2024/01/29 07:06:44;;;;;;;2.20;2.10;;;16.10;54.00;16.60;101841.00;;;;5036536;28;20182;-46
2024/01/29 07:09:09;;;;;;;3.63;1.97;;;16.20;54.10;16.60;101834.00;;;;5040090;28;20178;-46
2024/01/29 07:11:35;;;;;;;2.37;2.17;;;16.20;54.00;16.70;101832.00;;;;5035797;28;20199;-46
2024/01/29 07:14:01;;;;;;;2.80;2.03;;;16.30;54.10;16.70;101846.00;;;;5038909;28;20669;-46
2024/01/29 07:16:27;;;;;;;3.10;2.37;;;16.30;54.10;16.80;101834.00;;;;5037413;28;20207;-45
2024/01/29 07:18:52;;;;;;;2.50;2.20;;;16.30;54.20;16.80;101844.00;;;;5038281;28;20175;-45
2024/01/29 07:21:18;;;;;;;2.27;2.07;;;16.30;54.40;16.80;101843.00;;;;5046330;28;20182;-46
2024/01/29 07:23:44;;;;;;;2.10;1.90;;;16.30;54.40;16.80;101846.00;;;;5040068;28;20186;-46
2024/01/29 07:26:09;;;;;;;2.20;2.10;;;16.30;54.40;16.80;101847.00;;;;5039353;28;20675;-47
2024/01/29 07:28:35;;;;;;;2.47;2.27;;;16.30;54.30;16.90;101843.00;;;;5036858;28;20191;-47
2024/01/29 07:31:01;;;;;;;2.97;2.10;;;16.30;54.30;16.90;101853.00;;;;5038883;28;20202;-46
2024/01/29 07:33:27;;;;;;;2.50;2.30;;;16.30;54.40;16.90;101852.00;;;;5038298;28;20174;-47
2024/01/29 07:35:52;;;;;;;2.30;2.10;;;16.30;54.50;16.90;101862.00;;;;5049994;28;20187;-46
2024/01/29 07:38:18;;;;;;;2.63;2.10;;;16.30;54.60;16.90;101865.00;;;;5039805;28;20881;-45
2024/01/29 07:40:44;;;;;;;2.37;2.17;;;16.30;54.70;16.90;101865.00;;;;5037447;28;20175;-46
2024/01/29 07:43:09;;;;;;;2.40;2.20;;;16.30;54.80;16.90;101851.00;;;;5040111;28;20175;-46
2024/01/29 07:45:35;;;;;;;2.40;2.20;;;16.30;54.80;16.90;101871.00;;;;5036027;28;20175;-47
2024/01/29 07:48:04;;;;;;;2.30;2.10;;;16.30;54.80;16.70;101872.00;;;;5038769;28;20261;-46
2024/01/29 07:50:31;;;;;;;2.43;2.23;;;16.30;54.80;17.00;101882.00;;;;5037393;28;20258;-46
2024/01/29 07:52:56;;;;;;;2.03;1.93;;;16.40;54.90;17.00;101881.00;;;;5036885;28;20183;-46
2024/01/29 07:55:23;;;;;;;2.30;2.10;;;16.40;54.90;17.00;101889.00;;;;5038008;28;20191;-47
2024/01/29 07:57:49;;;;;;;2.30;2.10;;;16.40;54.90;17.00;101878.00;;;;5037207;28;20201;-47
2024/01/29 08:00:15;;;;;;;2.00;1.90;;;16.30;54.90;17.00;101883.00;;;;5039197;28;20182;-45
2024/01/29 08:02:40;;;;;;;2.30;2.10;;;16.40;55.10;17.00;101896.00;;;;5036950;28;20175;-46
2024/01/29 08:05:06;;;;;;;2.30;2.10;;;16.30;55.00;17.00;101890.00;;;;5036887;28;20236;-46
2024/01/29 08:07:32;;;;;;;2.10;2.00;;;16.40;55.10;17.10;101895.00;;;;5036764;28;20199;-45
2024/01/29 08:10:01;;;;;;;2.57;2.10;;;16.40;55.10;17.10;101897.00;;;;5038110;28;20572;-46
2024/01/29 08:12:27;;;;;;;2.00;1.90;;;16.50;55.10;17.10;101905.00;;;;5037172;28;20187;-45
2024/01/29 08:14:53;;;;;;;2.60;2.40;;;16.40;55.20;17.10;101912.00;;;;5036007;28;20218;-46
2024/01/29 08:17:18;;;;;;;1.97;1.87;;;16.40;55.20;17.10;101916.00;;;;5029620;28;20230;-46
2024/01/29 08:19:44;;;;;;;2.30;2.10;;;16.50;55.20;17.10;101903.00;;;;5029100;28;20237;-46
2024/01/29 08:22:10;;;;;;;2.80;2.13;;;16.40;55.10;17.10;101906.00;;;;5039746;28;20191;-46
2024/01/29 08:24:37;;;;;;;2.30;2.10;;;16.50;55.30;17.10;101900.00;;;;5038982;28;20178;-46
2024/01/29 08:27:03;;;;;;;2.07;1.90;;;16.50;55.40;17.10;101898.00;;;;5034286;28;20225;-47
2024/01/29 08:29:29;;;;;;;2.13;2.03;;;16.50;55.40;17.20;101904.00;;;;5031731;28;20214;-46
2024/01/29 08:31:54;;;;;;;3.53;2.17;;;16.50;55.70;17.20;101897.00;;;;5037011;28;20202;-46
2024/01/29 08:34:20;;;;;;;5.37;2.50;;;16.50;56.00;17.20;101900.00;;;;5035647;28;20175;-46
2024/01/29 08:36:46;;;;;;;2.27;2.10;;;16.50;56.00;17.20;101901.00;;;;5042599;28;20183;-46
2024/01/29 08:39:12;;;;;;;3.37;2.23;;;16.60;56.00;17.20;101899.00;;;;5038925;28;20210;-47
2024/01/29 08:41:37;;;;;;;2.40;2.20;;;16.50;56.00;17.20;101895.00;;;;5039102;28;20219;-47
2024/01/29 08:44:04;;;;;;;2.93;2.13;;;16.60;56.10;17.20;101891.00;;;;5037739;28;20190;-46
2024/01/29 08:46:30;;;;;;;2.20;2.00;;;16.60;56.00;17.20;101891.00;;;;5035269;28;20736;-47
2024/01/29 08:48:56;;;;;;;2.30;2.10;;;16.50;56.00;17.20;101889.00;;;;5045566;28;20199;-47
2024/01/29 08:51:22;;;;;;;3.00;2.10;;;16.50;56.00;17.20;101885.00;;;;5041263;28;20201;-46
2024/01/29 08:53:48;;;;;;;3.23;2.10;;;16.60;56.10;17.20;101895.00;;;;5038904;28;20191;-47
2024/01/29 08:56:13;;;;;;;2.30;2.20;;;16.50;56.30;17.20;101893.00;;;;5042332;28;20563;-46
2024/01/29 08:58:39;;;;;;;3.10;2.13;;;16.50;56.60;17.20;101897.00;;;;5039016;28;20221;-46
2024/01/29 09:01:05;;;;;;;2.17;2.00;;;16.50;56.80;17.20;101897.00;;;;5041935;28;20189;-46
2024/01/29 09:03:31;;;;;;;2.63;2.23;;;16.50;57.00;17.20;101890.00;;;;5040075;28;20185;-46
2024/01/29 09:05:56;;;;;;;3.07;2.13;;;16.50;57.30;17.20;101898.00;;;;5040938;28;20180;-46
2024/01/29 09:08:22;;;;;;;4.90;2.10;;;16.50;57.10;17.20;101904.00;;;;5041379;28;20248;-45
2024/01/29 09:10:48;;;;;;;2.50;2.30;;;16.50;57.40;17.20;101913.00;;;;5039352;28;20187;-47
2024/01/29 09:13:13;;;;;;;2.30;2.10;;;16.60;57.70;17.30;101915.00;;;;5042459;28;20183;-46
2024/01/29 09:15:39;;;;;;;3.00;2.20;;;16.60;57.70;17.30;101908.00;;;;5049076;28;20199;-46
2024/01/29 09:18:05;;;;;;;2.40;2.20;;;16.60;57.80;17.30;101915.00;;;;5042927;28;20197;-46
2024/01/29 09:20:31;;;;;;;4.37;2.30;;;16.60;57.70;17.30;101912.00;;;;5040624;28;20215;-47
2024/01/29 09:22:56;;;;;;;5.73;2.20;;;16.60;57.80;17.30;101913.00;;;;5041542;28;20191;-46
2024/01/29 09:25:22;;;;;;;3.17;2.30;;;16.60;57.80;17.30;101920.00;;;;5041309;28;20237;-47
2024/01/29 09:27:48;;;;;;;3.57;2.10;;;16.50;57.50;17.30;101922.00;;;;5042871;28;20205;-48
2024/01/29 09:30:14;;;;;;;2.60;2.27;;;16.50;57.30;17.30;101914.00;;;;5047253;28;20671;-46
2024/01/29 09:32:40;;;;;;;3.53;2.10;;;16.50;57.20;17.30;101943.00;;;;5037507;28;20205;-46
2024/01/29 09:35:08;;;;;;;2.40;2.20;;;16.50;57.10;17.30;101922.00;;;;5043904;28;20176;-46
2024/01/29 09:37:34;;;;;;;1.93;1.83;;;16.50;57.00;17.30;101918.00;;;;5039075;28;20195;-46
2024/01/29 09:40:00;;;;;;;2.37;2.17;;;16.60;57.00;17.30;101918.00;;;;5040763;28;20235;-46
2024/01/29 09:42:28;;;;;;;2.20;2.00;;;16.60;56.90;17.30;101916.00;;;;5040080;28;20720;-47
2024/01/29 09:44:56;;;;;;;2.50;1.90;;;16.50;57.10;17.30;101915.00;;;;5040169;28;20186;-46
2024/01/29 09:47:22;;;;;;;4.23;2.10;;;16.50;57.20;17.30;101915.00;;;;5036559;28;20205;-46
2024/01/29 09:49:48;;;;;;;3.27;2.33;;;16.60;57.50;17.30;101898.00;;;;5037225;28;20178;-47
2024/01/29 09:52:14;;;;;;;2.30;2.10;;;16.60;57.30;17.30;101910.00;;;;5042130;28;20198;-46
2024/01/29 09:54:42;;;;;;;4.33;2.20;;;16.70;57.30;17.30;101895.00;;;;5036599;28;20178;-46
2024/01/29 09:57:11;;;;;;;2.43;2.20;;;16.70;57.20;17.30;101905.00;;;;5007770;28;20192;-46
2024/01/29 09:59:40;;;;;;;2.53;2.20;;;16.70;57.20;17.40;101911.00;;;;5038989;28;20200;-46
2024/01/29 10:02:06;;;;;;;2.60;2.30;;;16.70;57.10;17.40;101916.00;;;;5040540;28;20186;-47
2024/01/29 10:04:32;;;;;;;2.50;2.07;;;16.70;57.20;17.40;101916.00;;;;5004465;28;20271;-46
2024/01/29 10:06:58;;;;;;;2.40;2.20;;;16.80;57.30;17.40;101898.00;;;;5039628;28;20254;-46
2024/01/29 10:09:23;;;;;;;2.57;2.10;;;16.70;57.40;17.40;101914.00;;;;5021793;28;20973;-45
2024/01/29 10:11:49;;;;;;;2.37;2.10;;;16.70;57.70;17.40;101918.00;;;;5040061;28;20208;-48
2024/01/29 10:14:16;;;;;;;2.30;2.10;;;16.70;58.00;17.40;101928.00;;;;5050557;28;20183;-46
2024/01/29 10:16:42;;;;;;;2.67;1.93;;;16.70;58.00;17.40;101915.00;;;;5037348;28;20193;-46
2024/01/29 10:19:09;;;;;;;2.97;2.10;;;16.70;58.00;17.40;101923.00;;;;5033447;28;20182;-46
2024/01/29 10:21:43;;;;;;;2.43;1.87;;;16.70;58.00;17.40;101919.00;;;;5036850;28;20188;-46
2024/01/29 10:24:13;;;;;;;3.40;2.00;;;16.70;58.20;17.40;101927.00;;;;5037393;28;20180;-45
2024/01/29 10:26:40;;;;;;;2.30;2.10;;;16.70;58.30;17.40;101923.00;;;;5036144;28;20649;-46
2024/01/29 10:29:07;;;;;;;4.37;2.27;;;16.70;58.30;17.40;101932.00;;;;5040844;28;20225;-46
2024/01/29 10:31:33;;;;;;;2.33;1.90;;;16.70;58.50;17.40;101924.00;;;;5027875;28;20219;-45
2024/01/29 10:33:59;;;;;;;2.20;2.00;;;16.60;58.90;17.40;101931.00;;;;5026914;28;20173;-46
2024/01/29 10:36:25;;;;;;;3.03;2.20;;;16.70;58.90;17.40;101930.00;;;;5027645;28;20174;-46
2024/01/29 10:38:51;;;;;;;3.30;2.10;;;16.70;58.80;17.40;101929.00;;;;5026546;28;20228;-45
2024/01/29 10:41:20;;;;;;;4.20;2.20;;;16.70;59.00;17.40;101919.00;;;;5039769;28;20185;-46